sensor_id;sensor_type;location;lat;lon;timestamp;P1;durP1;ratioP1;P2;durP2;ratioP2
37459;SDS011;23318;50.966;5.284;2023-12-22T00:01:24;12.43;;;1.83;;
37459;SDS011;23318;50.966;5.284;2023-12-22T00:03:50;15.88;;;2.08;;
37459;SDS011;23318;50.966;5.284;2023-12-22T00:06:16;14.00;;;2.75;;
37459;SDS011;23318;50.966;5.284;2023-12-22T00:08:41;20.08;;;2.35;;
37459;SDS011;23318;50.966;5.284;2023-12-22T00:11:07;20.63;;;2.72;;
37459;SDS011;23318;50.966;5.284;2023-12-22T00:13:33;14.80;;;2.15;;
37459;SDS011;23318;50.966;5.284;2023-12-22T00:15:59;20.92;;;1.92;;
37459;SDS011;23318;50.966;5.284;2023-12-22T00:18:25;15.55;;;2.65;;
37459;SDS011;23318;50.966;5.284;2023-12-22T00:20:51;15.65;;;3.70;;
37459;SDS011;23318;50.966;5.284;2023-12-22T00:23:17;19.35;;;3.15;;
37459;SDS011;23318;50.966;5.284;2023-12-22T00:25:42;12.00;;;2.20;;
37459;SDS011;23318;50.966;5.284;2023-12-22T00:28:08;10.38;;;1.42;;
37459;SDS011;23318;50.966;5.284;2023-12-22T00:30:34;15.05;;;2.10;;
37459;SDS011;23318;50.966;5.284;2023-12-22T00:32:59;16.80;;;1.85;;
37459;SDS011;23318;50.966;5.284;2023-12-22T00:35:25;17.85;;;2.92;;
37459;SDS011;23318;50.966;5.284;2023-12-22T00:37:51;7.95;;;1.67;;
37459;SDS011;23318;50.966;5.284;2023-12-22T00:40:17;12.10;;;1.98;;
37459;SDS011;23318;50.966;5.284;2023-12-22T00:42:44;13.20;;;1.20;;
37459;SDS011;23318;50.966;5.284;2023-12-22T00:45:10;21.80;;;2.33;;
37459;SDS011;23318;50.966;5.284;2023-12-22T00:47:36;7.15;;;1.92;;
37459;SDS011;23318;50.966;5.284;2023-12-22T00:50:02;12.20;;;2.13;;
37459;SDS011;23318;50.966;5.284;2023-12-22T00:52:29;15.02;;;2.25;;
37459;SDS011;23318;50.966;5.284;2023-12-22T00:54:55;10.85;;;1.70;;
37459;SDS011;23318;50.966;5.284;2023-12-22T00:57:21;13.88;;;2.30;;
37459;SDS011;23318;50.966;5.284;2023-12-22T00:59:47;14.25;;;2.30;;
37459;SDS011;23318;50.966;5.284;2023-12-22T01:02:13;20.80;;;1.75;;
37459;SDS011;23318;50.966;5.284;2023-12-22T01:04:42;14.52;;;2.03;;
37459;SDS011;23318;50.966;5.284;2023-12-22T01:07:08;17.33;;;2.78;;
37459;SDS011;23318;50.966;5.284;2023-12-22T01:09:35;13.65;;;3.55;;
37459;SDS011;23318;50.966;5.284;2023-12-22T01:12:02;11.30;;;2.00;;
37459;SDS011;23318;50.966;5.284;2023-12-22T01:14:32;4.95;;;1.30;;
37459;SDS011;23318;50.966;5.284;2023-12-22T01:16:58;13.57;;;2.45;;
37459;SDS011;23318;50.966;5.284;2023-12-22T01:19:25;16.48;;;1.75;;
37459;SDS011;23318;50.966;5.284;2023-12-22T01:21:51;9.85;;;2.53;;
37459;SDS011;23318;50.966;5.284;2023-12-22T01:24:16;14.43;;;2.05;;
37459;SDS011;23318;50.966;5.284;2023-12-22T01:26:42;10.38;;;1.70;;
37459;SDS011;23318;50.966;5.284;2023-12-22T01:29:08;10.57;;;1.25;;
37459;SDS011;23318;50.966;5.284;2023-12-22T01:31:33;8.75;;;2.03;;
37459;SDS011;23318;50.966;5.284;2023-12-22T01:33:59;8.32;;;2.05;;
37459;SDS011;23318;50.966;5.284;2023-12-22T01:36:25;22.02;;;2.75;;
37459;SDS011;23318;50.966;5.284;2023-12-22T01:38:51;7.13;;;1.40;;
37459;SDS011;23318;50.966;5.284;2023-12-22T01:41:17;8.23;;;1.40;;
37459;SDS011;23318;50.966;5.284;2023-12-22T01:43:42;15.60;;;1.98;;
37459;SDS011;23318;50.966;5.284;2023-12-22T01:46:08;14.15;;;1.65;;
37459;SDS011;23318;50.966;5.284;2023-12-22T01:48:36;14.02;;;1.50;;
37459;SDS011;23318;50.966;5.284;2023-12-22T01:51:02;12.35;;;1.42;;
37459;SDS011;23318;50.966;5.284;2023-12-22T01:53:31;8.50;;;1.85;;
37459;SDS011;23318;50.966;5.284;2023-12-22T01:55:57;11.23;;;1.20;;
37459;SDS011;23318;50.966;5.284;2023-12-22T01:58:26;13.90;;;3.13;;
37459;SDS011;23318;50.966;5.284;2023-12-22T02:00:54;15.38;;;2.90;;
37459;SDS011;23318;50.966;5.284;2023-12-22T02:03:21;9.90;;;2.40;;
37459;SDS011;23318;50.966;5.284;2023-12-22T02:05:46;14.57;;;2.08;;
37459;SDS011;23318;50.966;5.284;2023-12-22T02:08:12;10.07;;;1.95;;
37459;SDS011;23318;50.966;5.284;2023-12-22T02:10:40;10.73;;;1.67;;
37459;SDS011;23318;50.966;5.284;2023-12-22T02:13:06;12.13;;;1.52;;
37459;SDS011;23318;50.966;5.284;2023-12-22T02:15:32;11.25;;;1.98;;
37459;SDS011;23318;50.966;5.284;2023-12-22T02:18:00;12.73;;;1.42;;
37459;SDS011;23318;50.966;5.284;2023-12-22T02:20:28;15.32;;;2.65;;
37459;SDS011;23318;50.966;5.284;2023-12-22T02:22:54;20.88;;;2.58;;
37459;SDS011;23318;50.966;5.284;2023-12-22T02:25:20;14.20;;;2.00;;
37459;SDS011;23318;50.966;5.284;2023-12-22T02:28:28;12.23;;;2.10;;
37459;SDS011;23318;50.966;5.284;2023-12-22T02:33:25;12.27;;;2.60;;
37459;SDS011;23318;50.966;5.284;2023-12-22T02:35:53;16.58;;;2.72;;
37459;SDS011;23318;50.966;5.284;2023-12-22T02:38:28;6.43;;;1.77;;
37459;SDS011;23318;50.966;5.284;2023-12-22T02:40:54;16.60;;;2.65;;
37459;SDS011;23318;50.966;5.284;2023-12-22T02:43:20;13.73;;;2.13;;
37459;SDS011;23318;50.966;5.284;2023-12-22T02:45:50;13.27;;;2.88;;
37459;SDS011;23318;50.966;5.284;2023-12-22T02:48:16;22.17;;;2.53;;
37459;SDS011;23318;50.966;5.284;2023-12-22T02:50:41;11.48;;;2.03;;
37459;SDS011;23318;50.966;5.284;2023-12-22T02:53:07;23.00;;;2.30;;
37459;SDS011;23318;50.966;5.284;2023-12-22T02:55:33;5.35;;;1.17;;
37459;SDS011;23318;50.966;5.284;2023-12-22T02:57:58;13.50;;;1.83;;
37459;SDS011;23318;50.966;5.284;2023-12-22T03:00:24;16.13;;;2.83;;
37459;SDS011;23318;50.966;5.284;2023-12-22T03:02:50;12.60;;;2.25;;
37459;SDS011;23318;50.966;5.284;2023-12-22T03:05:15;21.52;;;2.45;;
37459;SDS011;23318;50.966;5.284;2023-12-22T03:07:41;8.82;;;2.38;;
37459;SDS011;23318;50.966;5.284;2023-12-22T03:10:07;7.90;;;1.75;;
37459;SDS011;23318;50.966;5.284;2023-12-22T03:12:33;14.23;;;2.83;;
37459;SDS011;23318;50.966;5.284;2023-12-22T03:14:58;24.05;;;2.88;;
37459;SDS011;23318;50.966;5.284;2023-12-22T03:17:24;14.07;;;1.73;;
37459;SDS011;23318;50.966;5.284;2023-12-22T03:19:49;9.70;;;1.85;;
37459;SDS011;23318;50.966;5.284;2023-12-22T03:22:15;18.70;;;2.95;;
37459;SDS011;23318;50.966;5.284;2023-12-22T03:24:41;15.88;;;2.53;;
37459;SDS011;23318;50.966;5.284;2023-12-22T03:27:06;10.35;;;2.17;;
37459;SDS011;23318;50.966;5.284;2023-12-22T03:29:32;13.20;;;1.90;;
37459;SDS011;23318;50.966;5.284;2023-12-22T03:31:58;14.95;;;3.13;;
37459;SDS011;23318;50.966;5.284;2023-12-22T03:34:23;9.90;;;1.98;;
37459;SDS011;23318;50.966;5.284;2023-12-22T03:36:49;6.22;;;1.25;;
37459;SDS011;23318;50.966;5.284;2023-12-22T03:39:15;11.30;;;1.92;;
37459;SDS011;23318;50.966;5.284;2023-12-22T03:41:41;5.70;;;1.15;;
37459;SDS011;23318;50.966;5.284;2023-12-22T03:44:06;15.65;;;1.80;;
37459;SDS011;23318;50.966;5.284;2023-12-22T03:46:32;11.32;;;1.67;;
37459;SDS011;23318;50.966;5.284;2023-12-22T03:48:58;13.65;;;1.95;;
37459;SDS011;23318;50.966;5.284;2023-12-22T03:51:23;21.52;;;1.92;;
37459;SDS011;23318;50.966;5.284;2023-12-22T03:53:49;8.18;;;1.65;;
37459;SDS011;23318;50.966;5.284;2023-12-22T03:56:15;15.00;;;1.88;;
37459;SDS011;23318;50.966;5.284;2023-12-22T03:58:40;15.60;;;1.52;;
37459;SDS011;23318;50.966;5.284;2023-12-22T04:01:06;14.68;;;1.92;;
37459;SDS011;23318;50.966;5.284;2023-12-22T04:03:33;14.38;;;1.52;;
37459;SDS011;23318;50.966;5.284;2023-12-22T04:06:01;10.70;;;1.70;;
37459;SDS011;23318;50.966;5.284;2023-12-22T04:08:27;17.15;;;2.17;;
37459;SDS011;23318;50.966;5.284;2023-12-22T04:10:53;11.45;;;3.60;;
37459;SDS011;23318;50.966;5.284;2023-12-22T04:13:19;12.82;;;1.40;;
37459;SDS011;23318;50.966;5.284;2023-12-22T04:15:44;11.18;;;1.85;;
37459;SDS011;23318;50.966;5.284;2023-12-22T04:18:10;6.75;;;1.50;;
37459;SDS011;23318;50.966;5.284;2023-12-22T04:20:35;10.68;;;1.65;;
37459;SDS011;23318;50.966;5.284;2023-12-22T04:23:01;4.78;;;1.45;;
37459;SDS011;23318;50.966;5.284;2023-12-22T04:25:27;10.48;;;2.70;;
37459;SDS011;23318;50.966;5.284;2023-12-22T04:27:52;4.93;;;1.48;;
37459;SDS011;23318;50.966;5.284;2023-12-22T04:30:18;10.93;;;2.13;;
37459;SDS011;23318;50.966;5.284;2023-12-22T04:32:44;11.18;;;1.70;;
37459;SDS011;23318;50.966;5.284;2023-12-22T04:35:09;19.75;;;2.25;;
37459;SDS011;23318;50.966;5.284;2023-12-22T04:37:35;14.48;;;2.17;;
37459;SDS011;23318;50.966;5.284;2023-12-22T04:40:01;15.05;;;2.28;;
37459;SDS011;23318;50.966;5.284;2023-12-22T04:42:27;10.07;;;1.33;;
37459;SDS011;23318;50.966;5.284;2023-12-22T04:44:53;12.85;;;2.00;;
37459;SDS011;23318;50.966;5.284;2023-12-22T04:47:19;18.50;;;3.17;;
37459;SDS011;23318;50.966;5.284;2023-12-22T04:49:45;9.60;;;2.20;;
37459;SDS011;23318;50.966;5.284;2023-12-22T04:52:11;8.32;;;1.67;;
37459;SDS011;23318;50.966;5.284;2023-12-22T04:54:37;13.68;;;3.08;;
37459;SDS011;23318;50.966;5.284;2023-12-22T04:57:03;9.18;;;1.98;;
37459;SDS011;23318;50.966;5.284;2023-12-22T04:59:29;15.93;;;2.10;;
37459;SDS011;23318;50.966;5.284;2023-12-22T05:01:55;14.15;;;1.90;;
37459;SDS011;23318;50.966;5.284;2023-12-22T05:04:21;15.45;;;2.67;;
37459;SDS011;23318;50.966;5.284;2023-12-22T05:06:47;15.63;;;3.33;;
37459;SDS011;23318;50.966;5.284;2023-12-22T05:09:13;16.02;;;2.35;;
37459;SDS011;23318;50.966;5.284;2023-12-22T05:11:39;18.55;;;1.80;;
37459;SDS011;23318;50.966;5.284;2023-12-22T05:14:04;15.95;;;2.40;;
37459;SDS011;23318;50.966;5.284;2023-12-22T05:16:30;15.35;;;2.65;;
37459;SDS011;23318;50.966;5.284;2023-12-22T05:18:59;21.38;;;2.70;;
37459;SDS011;23318;50.966;5.284;2023-12-22T05:21:25;20.25;;;3.72;;
37459;SDS011;23318;50.966;5.284;2023-12-22T05:23:52;17.65;;;1.95;;
37459;SDS011;23318;50.966;5.284;2023-12-22T05:26:18;12.68;;;1.92;;
37459;SDS011;23318;50.966;5.284;2023-12-22T05:28:45;22.55;;;2.60;;
37459;SDS011;23318;50.966;5.284;2023-12-22T05:31:11;18.75;;;3.40;;
37459;SDS011;23318;50.966;5.284;2023-12-22T05:33:36;17.17;;;2.33;;
37459;SDS011;23318;50.966;5.284;2023-12-22T05:36:02;17.45;;;2.92;;
37459;SDS011;23318;50.966;5.284;2023-12-22T05:38:28;25.85;;;2.70;;
37459;SDS011;23318;50.966;5.284;2023-12-22T05:40:54;21.00;;;2.78;;
37459;SDS011;23318;50.966;5.284;2023-12-22T05:43:19;23.30;;;3.90;;
37459;SDS011;23318;50.966;5.284;2023-12-22T05:45:45;26.45;;;3.03;;
37459;SDS011;23318;50.966;5.284;2023-12-22T05:48:11;14.55;;;3.55;;
37459;SDS011;23318;50.966;5.284;2023-12-22T05:50:36;28.70;;;3.72;;
37459;SDS011;23318;50.966;5.284;2023-12-22T05:53:02;12.48;;;2.47;;
37459;SDS011;23318;50.966;5.284;2023-12-22T05:55:28;25.35;;;4.40;;
37459;SDS011;23318;50.966;5.284;2023-12-22T05:57:54;26.52;;;3.80;;
37459;SDS011;23318;50.966;5.284;2023-12-22T06:00:20;27.95;;;3.63;;
37459;SDS011;23318;50.966;5.284;2023-12-22T06:02:46;34.28;;;4.25;;
37459;SDS011;23318;50.966;5.284;2023-12-22T06:05:12;15.88;;;2.15;;
37459;SDS011;23318;50.966;5.284;2023-12-22T06:07:38;23.83;;;3.70;;
37459;SDS011;23318;50.966;5.284;2023-12-22T06:10:05;20.48;;;3.25;;
37459;SDS011;23318;50.966;5.284;2023-12-22T06:12:32;16.30;;;3.15;;
37459;SDS011;23318;50.966;5.284;2023-12-22T06:14:57;31.55;;;4.63;;
37459;SDS011;23318;50.966;5.284;2023-12-22T06:17:23;33.15;;;3.60;;
37459;SDS011;23318;50.966;5.284;2023-12-22T06:19:49;29.38;;;4.10;;
37459;SDS011;23318;50.966;5.284;2023-12-22T06:22:14;24.77;;;3.90;;
37459;SDS011;23318;50.966;5.284;2023-12-22T06:24:40;21.67;;;3.22;;
37459;SDS011;23318;50.966;5.284;2023-12-22T06:27:06;23.27;;;3.78;;
37459;SDS011;23318;50.966;5.284;2023-12-22T06:29:32;21.60;;;3.35;;
37459;SDS011;23318;50.966;5.284;2023-12-22T06:31:58;27.70;;;4.18;;
37459;SDS011;23318;50.966;5.284;2023-12-22T06:34:24;22.48;;;3.05;;
37459;SDS011;23318;50.966;5.284;2023-12-22T06:36:50;27.50;;;4.45;;
37459;SDS011;23318;50.966;5.284;2023-12-22T06:39:16;34.40;;;4.68;;
37459;SDS011;23318;50.966;5.284;2023-12-22T06:41:42;18.60;;;2.63;;
37459;SDS011;23318;50.966;5.284;2023-12-22T06:44:07;19.40;;;4.07;;
37459;SDS011;23318;50.966;5.284;2023-12-22T06:46:35;23.50;;;2.78;;
37459;SDS011;23318;50.966;5.284;2023-12-22T06:49:01;27.25;;;3.80;;
37459;SDS011;23318;50.966;5.284;2023-12-22T06:51:28;23.60;;;3.72;;
37459;SDS011;23318;50.966;5.284;2023-12-22T06:54:01;24.38;;;4.70;;
37459;SDS011;23318;50.966;5.284;2023-12-22T06:56:28;26.20;;;3.80;;
37459;SDS011;23318;50.966;5.284;2023-12-22T06:58:55;27.55;;;4.20;;
37459;SDS011;23318;50.966;5.284;2023-12-22T07:03:57;22.52;;;3.50;;
37459;SDS011;23318;50.966;5.284;2023-12-22T07:06:26;20.67;;;4.00;;
37459;SDS011;23318;50.966;5.284;2023-12-22T07:11:37;25.42;;;3.17;;
37459;SDS011;23318;50.966;5.284;2023-12-22T07:14:03;23.42;;;3.80;;
37459;SDS011;23318;50.966;5.284;2023-12-22T07:16:29;25.23;;;3.97;;
37459;SDS011;23318;50.966;5.284;2023-12-22T07:18:55;43.88;;;5.45;;
37459;SDS011;23318;50.966;5.284;2023-12-22T07:21:20;38.83;;;4.20;;
37459;SDS011;23318;50.966;5.284;2023-12-22T07:23:46;27.27;;;2.97;;
37459;SDS011;23318;50.966;5.284;2023-12-22T07:26:12;33.17;;;3.92;;
37459;SDS011;23318;50.966;5.284;2023-12-22T07:28:37;19.45;;;2.50;;
37459;SDS011;23318;50.966;5.284;2023-12-22T07:31:03;10.50;;;2.45;;
37459;SDS011;23318;50.966;5.284;2023-12-22T07:33:30;23.15;;;3.50;;
37459;SDS011;23318;50.966;5.284;2023-12-22T07:35:56;15.07;;;2.53;;
37459;SDS011;23318;50.966;5.284;2023-12-22T07:38:21;20.25;;;2.78;;
37459;SDS011;23318;50.966;5.284;2023-12-22T07:40:47;35.00;;;4.88;;
37459;SDS011;23318;50.966;5.284;2023-12-22T07:43:13;22.25;;;3.15;;
37459;SDS011;23318;50.966;5.284;2023-12-22T07:45:39;21.13;;;3.72;;
37459;SDS011;23318;50.966;5.284;2023-12-22T07:48:05;32.63;;;3.47;;
37459;SDS011;23318;50.966;5.284;2023-12-22T07:50:31;27.02;;;3.42;;
37459;SDS011;23318;50.966;5.284;2023-12-22T07:52:57;14.27;;;2.25;;
37459;SDS011;23318;50.966;5.284;2023-12-22T07:55:23;13.43;;;2.72;;
37459;SDS011;23318;50.966;5.284;2023-12-22T07:57:49;20.67;;;3.55;;
37459;SDS011;23318;50.966;5.284;2023-12-22T08:00:16;9.15;;;1.92;;
37459;SDS011;23318;50.966;5.284;2023-12-22T08:02:44;17.15;;;2.35;;
37459;SDS011;23318;50.966;5.284;2023-12-22T08:05:10;10.52;;;2.10;;
37459;SDS011;23318;50.966;5.284;2023-12-22T08:07:36;12.65;;;2.60;;
37459;SDS011;23318;50.966;5.284;2023-12-22T08:10:02;11.65;;;2.22;;
37459;SDS011;23318;50.966;5.284;2023-12-22T08:12:28;19.02;;;2.97;;
37459;SDS011;23318;50.966;5.284;2023-12-22T08:14:54;14.20;;;2.33;;
37459;SDS011;23318;50.966;5.284;2023-12-22T08:17:20;9.27;;;1.90;;
37459;SDS011;23318;50.966;5.284;2023-12-22T08:19:45;14.75;;;1.55;;
37459;SDS011;23318;50.966;5.284;2023-12-22T08:22:12;10.27;;;1.70;;
37459;SDS011;23318;50.966;5.284;2023-12-22T08:24:40;6.90;;;2.53;;
37459;SDS011;23318;50.966;5.284;2023-12-22T08:27:06;10.23;;;2.33;;
37459;SDS011;23318;50.966;5.284;2023-12-22T08:29:32;15.65;;;2.53;;
37459;SDS011;23318;50.966;5.284;2023-12-22T08:31:58;12.68;;;2.92;;
37459;SDS011;23318;50.966;5.284;2023-12-22T08:34:25;13.85;;;2.17;;
37459;SDS011;23318;50.966;5.284;2023-12-22T08:36:51;15.02;;;2.17;;
37459;SDS011;23318;50.966;5.284;2023-12-22T08:39:17;12.63;;;2.25;;
37459;SDS011;23318;50.966;5.284;2023-12-22T08:41:42;13.88;;;1.83;;
37459;SDS011;23318;50.966;5.284;2023-12-22T08:44:08;7.38;;;2.08;;
37459;SDS011;23318;50.966;5.284;2023-12-22T08:46:34;12.80;;;2.40;;
37459;SDS011;23318;50.966;5.284;2023-12-22T08:49:00;9.95;;;1.90;;
37459;SDS011;23318;50.966;5.284;2023-12-22T08:51:27;6.93;;;2.17;;
37459;SDS011;23318;50.966;5.284;2023-12-22T08:53:54;10.25;;;2.10;;
37459;SDS011;23318;50.966;5.284;2023-12-22T08:56:20;12.68;;;2.53;;
37459;SDS011;23318;50.966;5.284;2023-12-22T08:58:47;11.50;;;2.08;;
37459;SDS011;23318;50.966;5.284;2023-12-22T09:01:15;9.15;;;2.30;;
37459;SDS011;23318;50.966;5.284;2023-12-22T09:03:41;8.43;;;1.73;;
37459;SDS011;23318;50.966;5.284;2023-12-22T09:06:11;5.60;;;1.98;;
37459;SDS011;23318;50.966;5.284;2023-12-22T09:08:40;5.15;;;2.45;;
37459;SDS011;23318;50.966;5.284;2023-12-22T09:11:06;4.80;;;1.60;;
37459;SDS011;23318;50.966;5.284;2023-12-22T09:13:32;10.93;;;1.98;;
37459;SDS011;23318;50.966;5.284;2023-12-22T09:16:00;7.85;;;1.92;;
37459;SDS011;23318;50.966;5.284;2023-12-22T09:18:27;8.57;;;2.22;;
37459;SDS011;23318;50.966;5.284;2023-12-22T09:20:53;2.72;;;1.50;;
37459;SDS011;23318;50.966;5.284;2023-12-22T09:23:19;7.55;;;2.40;;
37459;SDS011;23318;50.966;5.284;2023-12-22T09:25:46;6.88;;;1.90;;
37459;SDS011;23318;50.966;5.284;2023-12-22T09:28:12;8.50;;;2.15;;
37459;SDS011;23318;50.966;5.284;2023-12-22T09:30:37;6.80;;;1.80;;
37459;SDS011;23318;50.966;5.284;2023-12-22T09:33:03;4.20;;;1.75;;
37459;SDS011;23318;50.966;5.284;2023-12-22T09:35:29;3.75;;;2.08;;
37459;SDS011;23318;50.966;5.284;2023-12-22T09:37:55;6.85;;;1.98;;
37459;SDS011;23318;50.966;5.284;2023-12-22T09:40:21;6.05;;;3.30;;
37459;SDS011;23318;50.966;5.284;2023-12-22T09:42:49;4.47;;;2.38;;
37459;SDS011;23318;50.966;5.284;2023-12-22T09:45:19;8.43;;;2.60;;
37459;SDS011;23318;50.966;5.284;2023-12-22T09:47:46;7.57;;;2.65;;
37459;SDS011;23318;50.966;5.284;2023-12-22T09:50:13;7.97;;;2.55;;
37459;SDS011;23318;50.966;5.284;2023-12-22T09:52:41;6.35;;;1.95;;
37459;SDS011;23318;50.966;5.284;2023-12-22T09:55:09;3.20;;;1.50;;
37459;SDS011;23318;50.966;5.284;2023-12-22T09:57:35;2.53;;;1.58;;
37459;SDS011;23318;50.966;5.284;2023-12-22T10:00:04;3.10;;;1.55;;
37459;SDS011;23318;50.966;5.284;2023-12-22T10:02:33;6.38;;;2.80;;
37459;SDS011;23318;50.966;5.284;2023-12-22T10:05:00;4.13;;;2.13;;
37459;SDS011;23318;50.966;5.284;2023-12-22T10:07:27;5.75;;;2.15;;
37459;SDS011;23318;50.966;5.284;2023-12-22T10:09:53;6.00;;;2.63;;
37459;SDS011;23318;50.966;5.284;2023-12-22T10:12:21;3.45;;;1.73;;
37459;SDS011;23318;50.966;5.284;2023-12-22T10:14:47;9.07;;;3.03;;
37459;SDS011;23318;50.966;5.284;2023-12-22T10:17:16;2.55;;;2.05;;
37459;SDS011;23318;50.966;5.284;2023-12-22T10:19:42;3.95;;;1.83;;
37459;SDS011;23318;50.966;5.284;2023-12-22T10:22:08;3.47;;;1.17;;
37459;SDS011;23318;50.966;5.284;2023-12-22T10:24:40;1.95;;;1.40;;
37459;SDS011;23318;50.966;5.284;2023-12-22T10:27:07;1.63;;;1.50;;
37459;SDS011;23318;50.966;5.284;2023-12-22T10:29:34;2.17;;;1.50;;
37459;SDS011;23318;50.966;5.284;2023-12-22T10:32:02;1.27;;;0.93;;
37459;SDS011;23318;50.966;5.284;2023-12-22T10:34:29;4.53;;;1.38;;
37459;SDS011;23318;50.966;5.284;2023-12-22T10:36:56;5.07;;;1.58;;
37459;SDS011;23318;50.966;5.284;2023-12-22T10:39:26;5.82;;;1.67;;
37459;SDS011;23318;50.966;5.284;2023-12-22T10:41:55;5.35;;;1.40;;
37459;SDS011;23318;50.966;5.284;2023-12-22T10:44:25;5.15;;;1.52;;
37459;SDS011;23318;50.966;5.284;2023-12-22T10:46:52;3.55;;;1.73;;
37459;SDS011;23318;50.966;5.284;2023-12-22T10:49:19;5.38;;;1.92;;
37459;SDS011;23318;50.966;5.284;2023-12-22T10:51:45;5.07;;;2.20;;
37459;SDS011;23318;50.966;5.284;2023-12-22T10:54:10;2.83;;;1.65;;
37459;SDS011;23318;50.966;5.284;2023-12-22T10:56:36;5.43;;;1.92;;
37459;SDS011;23318;50.966;5.284;2023-12-22T10:59:02;4.40;;;1.42;;
37459;SDS011;23318;50.966;5.284;2023-12-22T11:01:31;4.55;;;1.70;;
37459;SDS011;23318;50.966;5.284;2023-12-22T11:04:02;3.75;;;1.85;;
37459;SDS011;23318;50.966;5.284;2023-12-22T11:06:30;5.30;;;1.45;;
37459;SDS011;23318;50.966;5.284;2023-12-22T11:09:00;4.13;;;1.40;;
37459;SDS011;23318;50.966;5.284;2023-12-22T11:11:35;1.77;;;0.98;;
37459;SDS011;23318;50.966;5.284;2023-12-22T11:14:03;3.55;;;1.55;;
37459;SDS011;23318;50.966;5.284;2023-12-22T11:16:29;6.18;;;1.75;;
37459;SDS011;23318;50.966;5.284;2023-12-22T11:18:56;2.65;;;0.90;;
37459;SDS011;23318;50.966;5.284;2023-12-22T11:21:22;7.47;;;1.60;;
37459;SDS011;23318;50.966;5.284;2023-12-22T11:23:52;9.90;;;1.30;;
37459;SDS011;23318;50.966;5.284;2023-12-22T11:26:19;4.18;;;1.33;;
37459;SDS011;23318;50.966;5.284;2023-12-22T11:28:46;9.95;;;1.92;;
37459;SDS011;23318;50.966;5.284;2023-12-22T11:31:13;6.63;;;0.80;;
37459;SDS011;23318;50.966;5.284;2023-12-22T11:33:57;4.75;;;0.82;;
37459;SDS011;23318;50.966;5.284;2023-12-22T11:36:24;3.05;;;1.10;;
37459;SDS011;23318;50.966;5.284;2023-12-22T11:38:50;8.18;;;1.55;;
37459;SDS011;23318;50.966;5.284;2023-12-22T11:41:26;4.88;;;0.93;;
37459;SDS011;23318;50.966;5.284;2023-12-22T11:43:55;6.90;;;1.17;;
37459;SDS011;23318;50.966;5.284;2023-12-22T11:46:23;3.47;;;1.00;;
37459;SDS011;23318;50.966;5.284;2023-12-22T11:48:49;7.38;;;0.90;;
37459;SDS011;23318;50.966;5.284;2023-12-22T11:51:16;4.15;;;1.00;;
37459;SDS011;23318;50.966;5.284;2023-12-22T11:53:43;5.95;;;0.73;;
37459;SDS011;23318;50.966;5.284;2023-12-22T11:56:10;5.13;;;0.90;;
37459;SDS011;23318;50.966;5.284;2023-12-22T11:58:44;1.75;;;0.52;;
37459;SDS011;23318;50.966;5.284;2023-12-22T12:01:18;3.30;;;0.73;;
37459;SDS011;23318;50.966;5.284;2023-12-22T12:03:58;2.20;;;0.98;;
37459;SDS011;23318;50.966;5.284;2023-12-22T12:08:54;2.38;;;1.10;;
37459;SDS011;23318;50.966;5.284;2023-12-22T12:14:19;7.55;;;0.75;;
37459;SDS011;23318;50.966;5.284;2023-12-22T12:16:48;2.85;;;0.70;;
37459;SDS011;23318;50.966;5.284;2023-12-22T12:19:14;1.13;;;0.55;;
37459;SDS011;23318;50.966;5.284;2023-12-22T12:21:40;5.03;;;0.95;;
37459;SDS011;23318;50.966;5.284;2023-12-22T12:24:06;3.35;;;0.73;;
37459;SDS011;23318;50.966;5.284;2023-12-22T12:26:34;3.63;;;1.42;;
37459;SDS011;23318;50.966;5.284;2023-12-22T12:29:01;7.95;;;1.08;;
37459;SDS011;23318;50.966;5.284;2023-12-22T12:31:37;5.40;;;1.52;;
37459;SDS011;23318;50.966;5.284;2023-12-22T12:34:04;4.95;;;0.75;;
37459;SDS011;23318;50.966;5.284;2023-12-22T12:36:30;4.85;;;0.65;;
37459;SDS011;23318;50.966;5.284;2023-12-22T12:41:32;5.68;;;0.75;;
37459;SDS011;23318;50.966;5.284;2023-12-22T12:44:03;7.28;;;0.75;;
37459;SDS011;23318;50.966;5.284;2023-12-22T12:46:32;1.95;;;0.60;;
37459;SDS011;23318;50.966;5.284;2023-12-22T12:49:11;3.88;;;0.70;;
37459;SDS011;23318;50.966;5.284;2023-12-22T12:51:44;2.67;;;1.02;;
37459;SDS011;23318;50.966;5.284;2023-12-22T12:54:11;2.15;;;0.68;;
37459;SDS011;23318;50.966;5.284;2023-12-22T12:56:41;6.38;;;0.50;;
37459;SDS011;23318;50.966;5.284;2023-12-22T12:59:09;2.78;;;0.70;;
37459;SDS011;23318;50.966;5.284;2023-12-22T13:01:42;4.30;;;0.60;;
37459;SDS011;23318;50.966;5.284;2023-12-22T13:04:10;4.47;;;0.68;;
37459;SDS011;23318;50.966;5.284;2023-12-22T13:06:47;4.25;;;0.55;;
37459;SDS011;23318;50.966;5.284;2023-12-22T13:09:16;4.65;;;0.80;;
37459;SDS011;23318;50.966;5.284;2023-12-22T13:11:43;6.55;;;0.93;;
37459;SDS011;23318;50.966;5.284;2023-12-22T13:14:22;3.92;;;1.63;;
37459;SDS011;23318;50.966;5.284;2023-12-22T13:16:53;5.03;;;0.88;;
37459;SDS011;23318;50.966;5.284;2023-12-22T13:19:21;8.52;;;1.15;;
37459;SDS011;23318;50.966;5.284;2023-12-22T13:21:48;9.70;;;1.27;;
37459;SDS011;23318;50.966;5.284;2023-12-22T13:24:14;10.45;;;1.33;;
37459;SDS011;23318;50.966;5.284;2023-12-22T13:26:41;3.85;;;1.27;;
37459;SDS011;23318;50.966;5.284;2023-12-22T13:29:08;2.97;;;0.60;;
37459;SDS011;23318;50.966;5.284;2023-12-22T13:31:41;2.05;;;0.60;;
37459;SDS011;23318;50.966;5.284;2023-12-22T13:34:08;3.30;;;0.70;;
37459;SDS011;23318;50.966;5.284;2023-12-22T13:36:35;4.65;;;0.85;;
37459;SDS011;23318;50.966;5.284;2023-12-22T13:39:07;4.05;;;0.80;;
37459;SDS011;23318;50.966;5.284;2023-12-22T13:41:42;2.45;;;1.10;;
37459;SDS011;23318;50.966;5.284;2023-12-22T13:44:14;7.05;;;0.60;;
37459;SDS011;23318;50.966;5.284;2023-12-22T13:46:40;3.47;;;0.57;;
37459;SDS011;23318;50.966;5.284;2023-12-22T13:49:10;5.88;;;0.75;;
37459;SDS011;23318;50.966;5.284;2023-12-22T13:51:45;5.75;;;1.25;;
37459;SDS011;23318;50.966;5.284;2023-12-22T13:54:13;0.30;;;0.28;;
37459;SDS011;23318;50.966;5.284;2023-12-22T13:56:39;2.10;;;0.63;;
37459;SDS011;23318;50.966;5.284;2023-12-22T13:59:06;3.78;;;0.77;;
37459;SDS011;23318;50.966;5.284;2023-12-22T14:01:32;7.00;;;0.77;;
37459;SDS011;23318;50.966;5.284;2023-12-22T14:03:58;4.35;;;0.68;;
37459;SDS011;23318;50.966;5.284;2023-12-22T14:06:27;4.65;;;0.52;;
37459;SDS011;23318;50.966;5.284;2023-12-22T14:08:53;2.22;;;0.75;;
37459;SDS011;23318;50.966;5.284;2023-12-22T14:11:20;3.25;;;0.70;;
37459;SDS011;23318;50.966;5.284;2023-12-22T14:13:46;5.57;;;1.00;;
37459;SDS011;23318;50.966;5.284;2023-12-22T14:16:11;2.92;;;0.88;;
37459;SDS011;23318;50.966;5.284;2023-12-22T14:18:37;3.08;;;0.93;;
37459;SDS011;23318;50.966;5.284;2023-12-22T14:21:03;3.47;;;0.70;;
37459;SDS011;23318;50.966;5.284;2023-12-22T14:23:30;4.65;;;0.75;;
37459;SDS011;23318;50.966;5.284;2023-12-22T14:25:56;7.63;;;0.70;;
37459;SDS011;23318;50.966;5.284;2023-12-22T14:28:21;3.70;;;0.65;;
37459;SDS011;23318;50.966;5.284;2023-12-22T14:30:47;5.75;;;0.85;;
37459;SDS011;23318;50.966;5.284;2023-12-22T14:33:13;4.93;;;0.95;;
37459;SDS011;23318;50.966;5.284;2023-12-22T14:35:39;6.38;;;0.77;;
37459;SDS011;23318;50.966;5.284;2023-12-22T14:38:04;1.02;;;0.40;;
37459;SDS011;23318;50.966;5.284;2023-12-22T14:40:30;1.45;;;0.50;;
37459;SDS011;23318;50.966;5.284;2023-12-22T14:42:56;6.18;;;0.75;;
37459;SDS011;23318;50.966;5.284;2023-12-22T14:45:21;3.83;;;0.93;;
37459;SDS011;23318;50.966;5.284;2023-12-22T14:47:48;2.65;;;0.40;;
37459;SDS011;23318;50.966;5.284;2023-12-22T14:50:13;10.20;;;1.33;;
37459;SDS011;23318;50.966;5.284;2023-12-22T14:52:39;5.35;;;0.90;;
37459;SDS011;23318;50.966;5.284;2023-12-22T14:55:05;4.13;;;0.55;;